Terminal Aerodrome Forecast
Issued by NWS

Home | Current Version | Previous Version | Graphics & Text | Print | Product List | Glossary On
Versions: 1 2 3 4 5 6 7 8 9 10 11 12 13 14 15 16 17 18 19 20 21 22 23 24 25 26 27 28 29
816
FTUS43 KABR 200529
TAFPIR
TAF
KPIR 200529Z 2006/2106 00000KT 1/4SM FZFG VV001
     FM201000 00000KT 1/2SM FG OVC003
     FM201400 VRB03KT 2SM BR FEW006
     FM201800 19004KT 6SM BR SKC
     FM210300 16004KT P6SM OVC015=

USA.gov is the U.S. government's official web portal to all federal, state and local government web resources and services.